createdAt,value
2023-03-16T04:43:57.748Z,100646.94
2023-03-16T04:47:01.119Z,100646.94
2023-03-16T04:50:08.808Z,100650.03
2023-03-16T04:53:12.330Z,100654.34
2023-03-16T04:56:18.295Z,100657.78
2023-03-16T04:59:21.671Z,100664.69
2023-03-16T05:02:25.297Z,100663.81
2023-03-16T05:05:28.274Z,100665.53
2023-03-16T05:08:31.324Z,100674.06
2023-03-16T05:11:35.397Z,100670.59
2023-03-16T05:14:38.457Z,100676.63
2023-03-16T05:17:42.441Z,100680.91
2023-03-16T05:20:45.603Z,100684.28
2023-03-16T05:23:49.400Z,100684.19
2023-03-16T05:26:52.256Z,100692.81
2023-03-16T05:29:57.674Z,100691.03
2023-03-16T05:33:00.750Z,100688.44
2023-03-16T05:36:04.632Z,100691.00
2023-03-16T05:39:08.666Z,100690.97
2023-03-16T05:42:11.701Z,100694.41
2023-03-16T05:45:17.027Z,100701.16
2023-03-16T05:48:21.261Z,100700.19
2023-03-16T05:51:26.385Z,100695.03
2023-03-16T05:54:29.958Z,100713.12
2023-03-16T05:57:34.058Z,100706.09
2023-03-16T06:00:39.394Z,100715.59
2023-03-16T06:03:43.130Z,100713.78
2023-03-16T06:06:46.433Z,100715.37
2023-03-16T06:09:49.972Z,100717.84
2023-03-16T06:12:52.570Z,100719.53
2023-03-16T06:15:56.376Z,100723.72
2023-03-16T06:19:00.026Z,100728.59
2023-03-16T06:22:04.108Z,100724.22
2023-03-16T06:25:08.379Z,100736.13
2023-03-16T06:28:11.618Z,100728.25
2023-03-16T06:31:15.417Z,100736.72
2023-03-16T06:34:20.098Z,100748.75
2023-03-16T06:37:22.718Z,100751.12
2023-03-16T06:40:26.515Z,100755.94
2023-03-16T06:43:29.471Z,100758.66
2023-03-16T06:46:33.854Z,100761.84
2023-03-16T06:49:36.818Z,100764.41
2023-03-16T06:52:41.553Z,100764.88
2023-03-16T06:55:44.156Z,100766.03
2023-03-16T06:58:49.846Z,100769.97
2023-03-16T07:01:52.462Z,100778.25
2023-03-16T07:04:55.564Z,100778.00
2023-03-16T07:07:59.377Z,100788.56
2023-03-16T07:11:02.218Z,100787.62
2023-03-16T07:14:05.389Z,100798.63
2023-03-16T07:17:08.490Z,100795.03
2023-03-16T07:20:12.896Z,100802.09
2023-03-16T07:23:16.016Z,100801.59
2023-03-16T07:26:19.089Z,100812.69
2023-03-16T07:29:23.599Z,100817.53
2023-03-16T07:32:26.421Z,100813.66
2023-03-16T07:35:29.655Z,100811.75
2023-03-16T07:38:33.436Z,100813.91
2023-03-16T07:41:37.612Z,100818.75
2023-03-16T07:44:43.890Z,100819.56
2023-03-16T07:47:47.985Z,100814.16
2023-03-16T07:50:50.971Z,100817.81
2023-03-16T07:53:54.191Z,100815.22
2023-03-16T07:56:56.835Z,100813.97
2023-03-16T08:00:00.551Z,100820.59
2023-03-16T08:03:03.419Z,100818.25
2023-03-16T08:06:06.970Z,100817.06
2023-03-16T08:09:10.477Z,100822.19
2023-03-16T08:12:13.885Z,100830.22
2023-03-16T08:15:17.480Z,100825.56
2023-03-16T08:18:21.376Z,100832.72
2023-03-16T08:21:25.034Z,100836.75
2023-03-16T08:24:31.032Z,100841.88
2023-03-16T08:27:34.093Z,100844.28
2023-03-16T08:30:37.972Z,100850.97
2023-03-16T08:33:45.183Z,100856.66
2023-03-16T08:36:49.441Z,100852.66
2023-03-16T08:39:53.128Z,100855.62
2023-03-16T08:42:56.259Z,100847.94
2023-03-16T08:45:59.335Z,100843.50
2023-03-16T08:49:03.169Z,100846.38
2023-03-16T08:52:10.228Z,100839.69
2023-03-16T08:55:13.202Z,100838.66
2023-03-16T08:58:15.517Z,100857.69
2023-03-16T09:01:19.591Z,100846.94
2023-03-16T09:04:22.028Z,100845.28
2023-03-16T09:07:25.005Z,100850.50
2023-03-16T09:10:28.128Z,100854.09
2023-03-16T09:13:32.782Z,100856.34
2023-03-16T09:16:35.685Z,100859.03
2023-03-16T09:19:57.735Z,100872.62
2023-03-16T09:23:01.559Z,100871.78
2023-03-16T09:26:07.514Z,100868.63
2023-03-16T09:29:09.925Z,100877.16
2023-03-16T09:32:14.202Z,100871.03
2023-03-16T09:35:17.596Z,100870.13
2023-03-16T09:38:20.357Z,100879.88
2023-03-16T09:41:44.577Z,100884.13
2023-03-16T09:44:59.276Z,100881.22
2023-03-16T09:48:05.261Z,100882.44
2023-03-16T09:51:35.341Z,100880.59
2023-03-16T09:55:05.053Z,100881.16
2023-03-16T09:58:17.410Z,100888.91
2023-03-16T10:01:35.184Z,100884.41
2023-03-16T10:05:13.446Z,100889.53
2023-03-16T10:08:20.624Z,100884.41
2023-03-16T10:11:32.117Z,100899.75
2023-03-16T10:15:19.349Z,100892.56
2023-03-16T10:18:29.432Z,100894.50
2023-03-16T10:21:43.253Z,100885.72
2023-03-16T10:24:52.792Z,100886.06
2023-03-16T10:27:57.263Z,100896.00
2023-03-16T10:31:01.648Z,100892.59
2023-03-16T10:34:06.330Z,100890.50
2023-03-16T10:37:14.139Z,100895.16
2023-03-16T10:40:16.597Z,100893.75
2023-03-16T10:43:20.102Z,100893.97
2023-03-16T10:46:27.780Z,100888.56
2023-03-16T10:49:41.762Z,100880.25
2023-03-16T10:52:49.639Z,100886.44
2023-03-16T10:55:58.909Z,100891.91
2023-03-16T10:59:01.449Z,100893.22
2023-03-16T11:02:16.709Z,100881.13
2023-03-16T11:05:19.031Z,100887.06
2023-03-16T11:08:27.155Z,100884.41
2023-03-16T11:11:32.571Z,100883.44
2023-03-16T11:14:37.161Z,100874.25
2023-03-16T11:17:44.938Z,100863.87
2023-03-16T11:20:48.271Z,100870.59
2023-03-16T11:23:56.497Z,100865.69
2023-03-16T11:27:03.289Z,100868.59
2023-03-16T11:30:16.601Z,100870.63
2023-03-16T11:33:19.312Z,100865.06
2023-03-16T11:36:44.279Z,100859.16
2023-03-16T11:40:02.170Z,100856.28
2023-03-16T11:43:23.500Z,100849.41
2023-03-16T11:46:32.399Z,100853.97
2023-03-16T11:49:56.845Z,100845.09
2023-03-16T11:53:05.038Z,100850.78
2023-03-16T11:56:23.574Z,100853.97
2023-03-16T12:00:00.547Z,100845.59
2023-03-16T12:03:42.040Z,100834.94
2023-03-16T12:07:12.424Z,100844.53
2023-03-16T12:10:33.954Z,100835.91
2023-03-16T12:13:40.061Z,100836.47
2023-03-16T12:16:50.000Z,100840.56
2023-03-16T12:20:23.382Z,100840.25
2023-03-16T12:23:52.348Z,100845.50
2023-03-16T12:26:55.921Z,100835.81
2023-03-16T12:30:04.234Z,100829.97
2023-03-16T12:33:20.811Z,100835.28
2023-03-16T12:36:41.697Z,100828.53
2023-03-16T12:39:53.854Z,100839.44
2023-03-16T12:43:52.621Z,100834.03
2023-03-16T12:47:08.786Z,100844.59
2023-03-16T12:50:19.324Z,100835.88
2023-03-16T12:53:38.817Z,100836.13
2023-03-16T12:56:47.004Z,100830.84
2023-03-16T12:59:57.291Z,100833.37
2023-03-16T13:03:01.450Z,100832.22
2023-03-16T13:06:04.845Z,100821.91
2023-03-16T13:09:07.481Z,100821.84
2023-03-16T13:12:22.945Z,100827.78
2023-03-16T13:15:29.784Z,100827.09
2023-03-16T13:18:40.173Z,100826.13
2023-03-16T13:21:43.327Z,100827.03
2023-03-16T13:25:00.550Z,100811.91
2023-03-16T13:28:11.904Z,100820.81
2023-03-16T13:31:37.189Z,100825.19
2023-03-16T13:34:49.876Z,100828.53
2023-03-16T13:37:54.085Z,100827.94
2023-03-16T13:41:01.847Z,100828.81
2023-03-16T13:44:05.227Z,100833.81
2023-03-16T13:47:08.467Z,100835.22
2023-03-16T13:50:12.162Z,100831.00
2023-03-16T13:53:33.322Z,100819.59
2023-03-16T13:56:37.212Z,100821.94
2023-03-16T13:59:41.851Z,100820.66
2023-03-16T14:02:47.177Z,100817.13
2023-03-16T14:05:50.867Z,100820.81
2023-03-16T14:08:58.540Z,100815.84
2023-03-16T14:12:02.528Z,100824.22
2023-03-16T14:15:05.333Z,100834.59
2023-03-16T14:18:16.827Z,100835.88
2023-03-16T14:21:23.445Z,100827.53
2023-03-16T14:24:33.772Z,100830.56
2023-03-16T14:27:38.818Z,100832.66
2023-03-16T14:30:51.831Z,100833.78
2023-03-16T14:34:00.589Z,100841.31
2023-03-16T14:37:06.155Z,100835.94
2023-03-16T14:40:24.281Z,100831.34
2023-03-16T14:43:33.056Z,100845.06
2023-03-16T14:46:41.078Z,100842.09
2023-03-16T14:49:44.453Z,100838.78
2023-03-16T14:52:47.964Z,100845.25
2023-03-16T14:55:50.635Z,100845.09
2023-03-16T14:58:53.535Z,100850.19
2023-03-16T15:01:56.740Z,100850.97
2023-03-16T15:05:01.237Z,100859.91
2023-03-16T15:08:07.116Z,100851.44
2023-03-16T15:11:09.588Z,100858.94
2023-03-16T15:14:35.197Z,100845.84
2023-03-16T15:17:37.757Z,100854.06
2023-03-16T15:20:43.890Z,100856.94
2023-03-16T15:23:47.020Z,100856.94
2023-03-16T15:26:51.230Z,100857.13
2023-03-16T15:29:53.852Z,100875.06
2023-03-16T15:32:56.853Z,100857.56
2023-03-16T15:36:02.272Z,100858.19
2023-03-16T15:39:05.554Z,100861.91
2023-03-16T15:42:14.941Z,100869.94
2023-03-16T15:45:20.782Z,100873.03
2023-03-16T15:48:24.465Z,100878.88
2023-03-16T15:51:29.500Z,100885.13
2023-03-16T15:54:33.997Z,100889.50
2023-03-16T15:57:36.682Z,100888.41
2023-03-16T16:00:39.585Z,100886.72
2023-03-16T16:03:42.346Z,100889.13
2023-03-16T16:06:49.404Z,100902.53
2023-03-16T16:09:56.977Z,100901.34
2023-03-16T16:13:00.082Z,100903.31
2023-03-16T16:16:02.767Z,100905.47
2023-03-16T16:19:05.663Z,100915.41
2023-03-16T16:22:11.817Z,100912.13
2023-03-16T16:25:14.502Z,100924.31
2023-03-16T16:28:20.066Z,100927.56
2023-03-16T16:31:23.521Z,100927.00
2023-03-16T16:34:27.123Z,100931.91
2023-03-16T16:37:29.533Z,100932.19
2023-03-16T16:40:38.216Z,100942.59
2023-03-16T16:43:42.603Z,100948.91
2023-03-16T16:46:48.097Z,100951.78
2023-03-16T16:49:51.800Z,100963.50
